sensor_id;sensor_type;location;lat;lon;timestamp;P1;durP1;ratioP1;P2;durP2;ratioP2
65552;SDS011;52465;51.560;14.368;2023-07-31T00:01:33;3.70;;;3.50;;
65552;SDS011;52465;51.560;14.368;2023-07-31T00:05:52;3.30;;;3.10;;
65552;SDS011;52465;51.560;14.368;2023-07-31T00:09:40;3.40;;;3.20;;
65552;SDS011;52465;51.560;14.368;2023-07-31T00:14:16;3.70;;;3.50;;
65552;SDS011;52465;51.560;14.368;2023-07-31T00:16:41;3.35;;;3.15;;
65552;SDS011;52465;51.560;14.368;2023-07-31T00:23:17;3.60;;;3.40;;
65552;SDS011;52465;51.560;14.368;2023-07-31T00:25:42;3.58;;;3.38;;
65552;SDS011;52465;51.560;14.368;2023-07-31T00:29:51;3.70;;;3.40;;
65552;SDS011;52465;51.560;14.368;2023-07-31T00:32:16;3.40;;;3.20;;
65552;SDS011;52465;51.560;14.368;2023-07-31T00:34:41;4.07;;;3.78;;
65552;SDS011;52465;51.560;14.368;2023-07-31T00:40:50;3.72;;;3.53;;
65552;SDS011;52465;51.560;14.368;2023-07-31T00:46:38;3.60;;;3.40;;
65552;SDS011;52465;51.560;14.368;2023-07-31T00:50:13;3.50;;;3.30;;
65552;SDS011;52465;51.560;14.368;2023-07-31T00:56:26;3.60;;;3.40;;
65552;SDS011;52465;51.560;14.368;2023-07-31T01:02:37;3.75;;;3.40;;
65552;SDS011;52465;51.560;14.368;2023-07-31T01:06:48;3.35;;;3.20;;
65552;SDS011;52465;51.560;14.368;2023-07-31T01:09:20;3.75;;;3.55;;
65552;SDS011;52465;51.560;14.368;2023-07-31T01:18:48;3.20;;;3.10;;
65552;SDS011;52465;51.560;14.368;2023-07-31T01:23:16;3.30;;;3.10;;
65552;SDS011;52465;51.560;14.368;2023-07-31T01:34:21;3.60;;;3.40;;
65552;SDS011;52465;51.560;14.368;2023-07-31T01:36:47;3.40;;;3.20;;
65552;SDS011;52465;51.560;14.368;2023-07-31T01:40:51;3.40;;;3.20;;
65552;SDS011;52465;51.560;14.368;2023-07-31T01:50:29;3.63;;;3.42;;
65552;SDS011;52465;51.560;14.368;2023-07-31T01:52:54;3.50;;;3.30;;
65552;SDS011;52465;51.560;14.368;2023-07-31T01:55:23;3.40;;;3.20;;
65552;SDS011;52465;51.560;14.368;2023-07-31T01:57:48;3.60;;;3.40;;
65552;SDS011;52465;51.560;14.368;2023-07-31T02:01:27;3.53;;;3.33;;
65552;SDS011;52465;51.560;14.368;2023-07-31T02:03:53;3.60;;;3.40;;
65552;SDS011;52465;51.560;14.368;2023-07-31T02:06:19;3.75;;;3.55;;
65552;SDS011;52465;51.560;14.368;2023-07-31T02:19:15;3.50;;;3.30;;
65552;SDS011;52465;51.560;14.368;2023-07-31T02:24:22;3.50;;;3.30;;
65552;SDS011;52465;51.560;14.368;2023-07-31T02:26:48;3.58;;;3.38;;
65552;SDS011;52465;51.560;14.368;2023-07-31T02:29:13;3.63;;;3.33;;
65552;SDS011;52465;51.560;14.368;2023-07-31T02:32:49;3.30;;;3.10;;
65552;SDS011;52465;51.560;14.368;2023-07-31T02:35:15;3.38;;;3.17;;
65552;SDS011;52465;51.560;14.368;2023-07-31T02:38:40;3.50;;;3.30;;
65552;SDS011;52465;51.560;14.368;2023-07-31T02:41:06;3.50;;;3.30;;
65552;SDS011;52465;51.560;14.368;2023-07-31T02:52:55;3.55;;;3.28;;
65552;SDS011;52465;51.560;14.368;2023-07-31T03:06:33;3.65;;;3.45;;
65552;SDS011;52465;51.560;14.368;2023-07-31T03:10:51;3.50;;;3.30;;
65552;SDS011;52465;51.560;14.368;2023-07-31T03:13:16;3.42;;;3.30;;
65552;SDS011;52465;51.560;14.368;2023-07-31T03:21:47;3.58;;;3.38;;
65552;SDS011;52465;51.560;14.368;2023-07-31T03:24:12;3.53;;;3.33;;
65552;SDS011;52465;51.560;14.368;2023-07-31T03:26:37;3.70;;;3.50;;
65552;SDS011;52465;51.560;14.368;2023-07-31T03:29:03;3.50;;;3.30;;
65552;SDS011;52465;51.560;14.368;2023-07-31T03:33:17;3.45;;;3.25;;
65552;SDS011;52465;51.560;14.368;2023-07-31T03:37:53;3.42;;;3.22;;
65552;SDS011;52465;51.560;14.368;2023-07-31T03:40:19;3.38;;;3.20;;
65552;SDS011;52465;51.560;14.368;2023-07-31T03:46:36;3.47;;;3.28;;
65552;SDS011;52465;51.560;14.368;2023-07-31T03:49:02;3.58;;;3.38;;
65552;SDS011;52465;51.560;14.368;2023-07-31T03:51:27;3.55;;;3.35;;
65552;SDS011;52465;51.560;14.368;2023-07-31T03:56:02;3.50;;;3.30;;
65552;SDS011;52465;51.560;14.368;2023-07-31T03:58:28;3.22;;;3.13;;
65552;SDS011;52465;51.560;14.368;2023-07-31T04:00:53;3.47;;;3.30;;
65552;SDS011;52465;51.560;14.368;2023-07-31T04:12:15;3.40;;;3.20;;
65552;SDS011;52465;51.560;14.368;2023-07-31T04:31:29;3.55;;;3.35;;
65552;SDS011;52465;51.560;14.368;2023-07-31T04:39:57;3.50;;;3.30;;
65552;SDS011;52465;51.560;14.368;2023-07-31T04:45:52;3.50;;;3.30;;
65552;SDS011;52465;51.560;14.368;2023-07-31T04:49:38;3.75;;;3.30;;
65552;SDS011;52465;51.560;14.368;2023-07-31T04:55:52;3.60;;;3.40;;
65552;SDS011;52465;51.560;14.368;2023-07-31T05:03:18;3.30;;;3.20;;
65552;SDS011;52465;51.560;14.368;2023-07-31T05:14:01;3.50;;;3.30;;
65552;SDS011;52465;51.560;14.368;2023-07-31T05:17:52;3.47;;;3.30;;
65552;SDS011;52465;51.560;14.368;2023-07-31T05:24:04;3.50;;;3.30;;
65552;SDS011;52465;51.560;14.368;2023-07-31T05:26:30;3.60;;;3.40;;
65552;SDS011;52465;51.560;14.368;2023-07-31T05:28:55;3.58;;;3.30;;
65552;SDS011;52465;51.560;14.368;2023-07-31T05:36:17;3.40;;;3.20;;
65552;SDS011;52465;51.560;14.368;2023-07-31T05:38:42;3.45;;;3.20;;
65552;SDS011;52465;51.560;14.368;2023-07-31T05:41:08;3.50;;;3.30;;
65552;SDS011;52465;51.560;14.368;2023-07-31T05:45:44;3.40;;;3.20;;
65552;SDS011;52465;51.560;14.368;2023-07-31T05:48:09;3.40;;;3.20;;
65552;SDS011;52465;51.560;14.368;2023-07-31T05:52:39;3.33;;;3.13;;
65552;SDS011;52465;51.560;14.368;2023-07-31T05:59:43;3.60;;;3.40;;
65552;SDS011;52465;51.560;14.368;2023-07-31T06:02:08;3.33;;;3.13;;
65552;SDS011;52465;51.560;14.368;2023-07-31T06:04:34;3.60;;;3.40;;
65552;SDS011;52465;51.560;14.368;2023-07-31T06:06:59;3.55;;;3.35;;
65552;SDS011;52465;51.560;14.368;2023-07-31T06:15:18;3.50;;;3.30;;
65552;SDS011;52465;51.560;14.368;2023-07-31T06:17:43;3.40;;;3.28;;
65552;SDS011;52465;51.560;14.368;2023-07-31T06:29:20;3.50;;;3.30;;
65552;SDS011;52465;51.560;14.368;2023-07-31T06:31:46;3.40;;;3.20;;
65552;SDS011;52465;51.560;14.368;2023-07-31T06:34:11;3.40;;;3.30;;
65552;SDS011;52465;51.560;14.368;2023-07-31T06:41:05;3.70;;;3.40;;
65552;SDS011;52465;51.560;14.368;2023-07-31T06:55:22;3.70;;;3.50;;
65552;SDS011;52465;51.560;14.368;2023-07-31T06:57:52;3.50;;;3.30;;
65552;SDS011;52465;51.560;14.368;2023-07-31T07:02:32;3.60;;;3.40;;
65552;SDS011;52465;51.560;14.368;2023-07-31T07:04:57;3.58;;;3.38;;
65552;SDS011;52465;51.560;14.368;2023-07-31T07:10:36;3.55;;;3.35;;
65552;SDS011;52465;51.560;14.368;2023-07-31T07:13:02;3.70;;;3.50;;
65552;SDS011;52465;51.560;14.368;2023-07-31T07:19:26;3.40;;;3.20;;
65552;SDS011;52465;51.560;14.368;2023-07-31T07:26:28;3.58;;;3.38;;
65552;SDS011;52465;51.560;14.368;2023-07-31T07:28:53;3.58;;;3.38;;
65552;SDS011;52465;51.560;14.368;2023-07-31T07:35:21;3.55;;;3.35;;
65552;SDS011;52465;51.560;14.368;2023-07-31T07:40:00;3.60;;;3.40;;
65552;SDS011;52465;51.560;14.368;2023-07-31T07:42:26;3.50;;;3.35;;
65552;SDS011;52465;51.560;14.368;2023-07-31T07:44:51;3.70;;;3.50;;
65552;SDS011;52465;51.560;14.368;2023-07-31T07:47:16;3.53;;;3.30;;
65552;SDS011;52465;51.560;14.368;2023-07-31T07:49:42;3.80;;;3.60;;
65552;SDS011;52465;51.560;14.368;2023-07-31T07:59:52;3.70;;;3.50;;
65552;SDS011;52465;51.560;14.368;2023-07-31T08:08:07;3.70;;;3.47;;
65552;SDS011;52465;51.560;14.368;2023-07-31T08:17:42;4.70;;;3.72;;
65552;SDS011;52465;51.560;14.368;2023-07-31T08:20:08;3.90;;;3.60;;
65552;SDS011;52465;51.560;14.368;2023-07-31T08:24:32;3.92;;;3.40;;
65552;SDS011;52465;51.560;14.368;2023-07-31T08:30:23;3.85;;;3.55;;
65552;SDS011;52465;51.560;14.368;2023-07-31T08:34:52;3.55;;;3.35;;
65552;SDS011;52465;51.560;14.368;2023-07-31T08:37:18;4.63;;;3.85;;
65552;SDS011;52465;51.560;14.368;2023-07-31T08:39:43;4.63;;;3.60;;
65552;SDS011;52465;51.560;14.368;2023-07-31T08:42:09;6.47;;;3.85;;
65552;SDS011;52465;51.560;14.368;2023-07-31T08:44:34;4.70;;;4.05;;
65552;SDS011;52465;51.560;14.368;2023-07-31T08:50:29;4.85;;;4.38;;
65552;SDS011;52465;51.560;14.368;2023-07-31T08:58:47;3.83;;;3.53;;
65552;SDS011;52465;51.560;14.368;2023-07-31T09:01:14;3.67;;;3.47;;
65552;SDS011;52465;51.560;14.368;2023-07-31T09:05:39;4.32;;;3.55;;
65552;SDS011;52465;51.560;14.368;2023-07-31T09:11:50;4.15;;;3.75;;
65552;SDS011;52465;51.560;14.368;2023-07-31T09:14:16;3.70;;;3.40;;
65552;SDS011;52465;51.560;14.368;2023-07-31T09:16:52;4.35;;;3.65;;
65552;SDS011;52465;51.560;14.368;2023-07-31T09:19:39;4.07;;;3.58;;
65552;SDS011;52465;51.560;14.368;2023-07-31T09:27:47;3.95;;;3.63;;
65552;SDS011;52465;51.560;14.368;2023-07-31T09:30:13;4.05;;;3.75;;
65552;SDS011;52465;51.560;14.368;2023-07-31T09:32:39;5.47;;;3.78;;
65552;SDS011;52465;51.560;14.368;2023-07-31T09:35:12;4.25;;;3.83;;
65552;SDS011;52465;51.560;14.368;2023-07-31T09:52:39;4.95;;;3.70;;
65552;SDS011;52465;51.560;14.368;2023-07-31T09:57:36;4.13;;;3.70;;
65552;SDS011;52465;51.560;14.368;2023-07-31T10:00:05;3.80;;;3.50;;
65552;SDS011;52465;51.560;14.368;2023-07-31T10:08:23;3.80;;;3.50;;
65552;SDS011;52465;51.560;14.368;2023-07-31T10:12:14;3.80;;;3.50;;
65552;SDS011;52465;51.560;14.368;2023-07-31T10:14:41;4.78;;;3.60;;
65552;SDS011;52465;51.560;14.368;2023-07-31T10:17:07;4.22;;;3.90;;
65552;SDS011;52465;51.560;14.368;2023-07-31T10:21:59;4.07;;;3.67;;
65552;SDS011;52465;51.560;14.368;2023-07-31T10:24:25;4.00;;;3.70;;
65552;SDS011;52465;51.560;14.368;2023-07-31T10:26:52;4.03;;;3.80;;
65552;SDS011;52465;51.560;14.368;2023-07-31T10:29:18;3.95;;;3.65;;
65552;SDS011;52465;51.560;14.368;2023-07-31T10:31:48;3.80;;;3.60;;
65552;SDS011;52465;51.560;14.368;2023-07-31T10:34:13;3.75;;;3.55;;
65552;SDS011;52465;51.560;14.368;2023-07-31T10:41:16;3.90;;;3.60;;
65552;SDS011;52465;51.560;14.368;2023-07-31T10:45:12;4.00;;;3.70;;
65552;SDS011;52465;51.560;14.368;2023-07-31T10:49:46;3.85;;;3.65;;
65552;SDS011;52465;51.560;14.368;2023-07-31T10:52:12;5.20;;;3.83;;
65552;SDS011;52465;51.560;14.368;2023-07-31T10:59:01;4.15;;;3.60;;
65552;SDS011;52465;51.560;14.368;2023-07-31T11:06:39;5.32;;;3.50;;
65552;SDS011;52465;51.560;14.368;2023-07-31T11:12:12;3.40;;;3.20;;
65552;SDS011;52465;51.560;14.368;2023-07-31T11:15:21;4.00;;;3.65;;
65552;SDS011;52465;51.560;14.368;2023-07-31T11:22:17;3.97;;;3.55;;
65552;SDS011;52465;51.560;14.368;2023-07-31T11:25:48;3.80;;;3.50;;
65552;SDS011;52465;51.560;14.368;2023-07-31T11:28:15;4.22;;;3.65;;
65552;SDS011;52465;51.560;14.368;2023-07-31T11:30:43;3.90;;;3.60;;
65552;SDS011;52465;51.560;14.368;2023-07-31T11:33:10;3.80;;;3.60;;
65552;SDS011;52465;51.560;14.368;2023-07-31T11:35:40;3.70;;;3.50;;
65552;SDS011;52465;51.560;14.368;2023-07-31T11:42:23;4.13;;;3.88;;
65552;SDS011;52465;51.560;14.368;2023-07-31T11:46:33;3.70;;;3.45;;
65552;SDS011;52465;51.560;14.368;2023-07-31T11:48:59;3.78;;;3.53;;
65552;SDS011;52465;51.560;14.368;2023-07-31T11:51:26;4.07;;;3.78;;
65552;SDS011;52465;51.560;14.368;2023-07-31T11:55:58;3.90;;;3.50;;
65552;SDS011;52465;51.560;14.368;2023-07-31T12:02:11;3.90;;;3.60;;
65552;SDS011;52465;51.560;14.368;2023-07-31T12:06:23;3.85;;;3.55;;
65552;SDS011;52465;51.560;14.368;2023-07-31T12:09:00;3.90;;;3.60;;
65552;SDS011;52465;51.560;14.368;2023-07-31T12:11:26;3.78;;;3.50;;
65552;SDS011;52465;51.560;14.368;2023-07-31T12:17:06;3.90;;;3.60;;
65552;SDS011;52465;51.560;14.368;2023-07-31T12:28:04;4.05;;;3.75;;
65552;SDS011;52465;51.560;14.368;2023-07-31T12:34:42;3.90;;;3.60;;
65552;SDS011;52465;51.560;14.368;2023-07-31T12:41:25;4.18;;;3.78;;
65552;SDS011;52465;51.560;14.368;2023-07-31T12:50:09;4.10;;;3.80;;
65552;SDS011;52465;51.560;14.368;2023-07-31T12:52:35;3.97;;;3.67;;
65552;SDS011;52465;51.560;14.368;2023-07-31T13:01:03;3.80;;;3.50;;
65552;SDS011;52465;51.560;14.368;2023-07-31T13:06:44;3.80;;;3.60;;
65552;SDS011;52465;51.560;14.368;2023-07-31T13:11:03;4.35;;;4.05;;
65552;SDS011;52465;51.560;14.368;2023-07-31T13:16:40;3.85;;;3.55;;
65552;SDS011;52465;51.560;14.368;2023-07-31T13:19:06;3.70;;;3.40;;
65552;SDS011;52465;51.560;14.368;2023-07-31T13:26:46;4.00;;;3.70;;
65552;SDS011;52465;51.560;14.368;2023-07-31T13:30:58;4.00;;;3.70;;
65552;SDS011;52465;51.560;14.368;2023-07-31T13:34:42;3.88;;;3.58;;
65552;SDS011;52465;51.560;14.368;2023-07-31T13:39:04;3.80;;;3.60;;
65552;SDS011;52465;51.560;14.368;2023-07-31T13:42:52;3.85;;;3.60;;
65552;SDS011;52465;51.560;14.368;2023-07-31T13:53:56;3.70;;;3.50;;
65552;SDS011;52465;51.560;14.368;2023-07-31T13:59:22;4.30;;;3.90;;
65552;SDS011;52465;51.560;14.368;2023-07-31T14:07:38;3.78;;;3.58;;
65552;SDS011;52465;51.560;14.368;2023-07-31T14:10:04;3.90;;;3.60;;
65552;SDS011;52465;51.560;14.368;2023-07-31T14:13:46;3.78;;;3.47;;
65552;SDS011;52465;51.560;14.368;2023-07-31T14:16:11;3.80;;;3.50;;
65552;SDS011;52465;51.560;14.368;2023-07-31T14:18:37;3.90;;;3.70;;
65552;SDS011;52465;51.560;14.368;2023-07-31T14:21:02;3.92;;;3.63;;
65552;SDS011;52465;51.560;14.368;2023-07-31T14:32:24;3.70;;;3.50;;
65552;SDS011;52465;51.560;14.368;2023-07-31T14:36:42;3.75;;;3.50;;
65552;SDS011;52465;51.560;14.368;2023-07-31T14:41:14;4.13;;;3.72;;
65552;SDS011;52465;51.560;14.368;2023-07-31T14:43:39;3.75;;;3.45;;
65552;SDS011;52465;51.560;14.368;2023-07-31T14:49:40;4.00;;;3.70;;
65552;SDS011;52465;51.560;14.368;2023-07-31T14:56:16;4.10;;;3.70;;
65552;SDS011;52465;51.560;14.368;2023-07-31T15:01:50;3.75;;;3.47;;
65552;SDS011;52465;51.560;14.368;2023-07-31T15:06:00;4.10;;;3.80;;
65552;SDS011;52465;51.560;14.368;2023-07-31T15:08:26;3.85;;;3.55;;
65552;SDS011;52465;51.560;14.368;2023-07-31T15:12:13;4.10;;;3.80;;
65552;SDS011;52465;51.560;14.368;2023-07-31T15:20:48;4.57;;;3.60;;
65552;SDS011;52465;51.560;14.368;2023-07-31T15:27:46;4.28;;;3.97;;
65552;SDS011;52465;51.560;14.368;2023-07-31T15:37:03;4.03;;;3.72;;
65552;SDS011;52465;51.560;14.368;2023-07-31T15:46:03;3.70;;;3.50;;
65552;SDS011;52465;51.560;14.368;2023-07-31T16:01:20;3.83;;;3.58;;
65552;SDS011;52465;51.560;14.368;2023-07-31T16:03:45;3.70;;;3.50;;
65552;SDS011;52465;51.560;14.368;2023-07-31T16:10:58;4.20;;;3.90;;
65552;SDS011;52465;51.560;14.368;2023-07-31T16:18:39;4.10;;;3.80;;
65552;SDS011;52465;51.560;14.368;2023-07-31T16:21:05;4.20;;;3.90;;
65552;SDS011;52465;51.560;14.368;2023-07-31T16:25:32;3.78;;;3.53;;
65552;SDS011;52465;51.560;14.368;2023-07-31T16:30:05;3.63;;;3.42;;
65552;SDS011;52465;51.560;14.368;2023-07-31T16:34:19;4.43;;;4.03;;
65552;SDS011;52465;51.560;14.368;2023-07-31T16:39:44;4.10;;;3.78;;
65552;SDS011;52465;51.560;14.368;2023-07-31T16:45:22;4.10;;;3.80;;
65552;SDS011;52465;51.560;14.368;2023-07-31T16:49:24;3.90;;;3.70;;
65552;SDS011;52465;51.560;14.368;2023-07-31T16:51:50;3.72;;;3.53;;
65552;SDS011;52465;51.560;14.368;2023-07-31T16:54:16;4.10;;;3.80;;
65552;SDS011;52465;51.560;14.368;2023-07-31T17:07:50;4.07;;;3.78;;
65552;SDS011;52465;51.560;14.368;2023-07-31T17:12:49;4.20;;;3.90;;
65552;SDS011;52465;51.560;14.368;2023-07-31T17:15:15;4.07;;;3.78;;
65552;SDS011;52465;51.560;14.368;2023-07-31T17:24:52;3.80;;;3.60;;
65552;SDS011;52465;51.560;14.368;2023-07-31T17:27:18;4.20;;;3.90;;
65552;SDS011;52465;51.560;14.368;2023-07-31T17:29:43;4.10;;;3.80;;
65552;SDS011;52465;51.560;14.368;2023-07-31T17:32:09;3.90;;;3.70;;
65552;SDS011;52465;51.560;14.368;2023-07-31T17:34:34;4.18;;;3.90;;
65552;SDS011;52465;51.560;14.368;2023-07-31T17:36:59;4.10;;;3.80;;
65552;SDS011;52465;51.560;14.368;2023-07-31T17:41:14;3.95;;;3.75;;
65552;SDS011;52465;51.560;14.368;2023-07-31T17:43:39;4.30;;;4.00;;
65552;SDS011;52465;51.560;14.368;2023-07-31T17:55:14;4.15;;;3.85;;
65552;SDS011;52465;51.560;14.368;2023-07-31T18:00:23;3.97;;;3.75;;
65552;SDS011;52465;51.560;14.368;2023-07-31T18:16:59;4.63;;;4.22;;
65552;SDS011;52465;51.560;14.368;2023-07-31T18:20:32;4.00;;;3.70;;
65552;SDS011;52465;51.560;14.368;2023-07-31T18:30:17;4.35;;;4.05;;
65552;SDS011;52465;51.560;14.368;2023-07-31T18:34:08;4.13;;;3.83;;
65552;SDS011;52465;51.560;14.368;2023-07-31T18:39:22;4.07;;;3.80;;
65552;SDS011;52465;51.560;14.368;2023-07-31T18:52:40;4.03;;;3.72;;
65552;SDS011;52465;51.560;14.368;2023-07-31T18:55:06;3.83;;;3.63;;
65552;SDS011;52465;51.560;14.368;2023-07-31T18:57:32;4.18;;;3.88;;
65552;SDS011;52465;51.560;14.368;2023-07-31T19:01:44;4.05;;;3.78;;
65552;SDS011;52465;51.560;14.368;2023-07-31T19:05:59;3.88;;;3.58;;
65552;SDS011;52465;51.560;14.368;2023-07-31T19:09:58;4.25;;;3.90;;
65552;SDS011;52465;51.560;14.368;2023-07-31T19:17:29;3.83;;;3.63;;
65552;SDS011;52465;51.560;14.368;2023-07-31T19:26:31;4.30;;;4.00;;
65552;SDS011;52465;51.560;14.368;2023-07-31T19:28:56;4.10;;;3.80;;
65552;SDS011;52465;51.560;14.368;2023-07-31T19:36:00;4.07;;;3.88;;
65552;SDS011;52465;51.560;14.368;2023-07-31T19:40:33;4.50;;;4.20;;
65552;SDS011;52465;51.560;14.368;2023-07-31T19:42:59;4.18;;;3.88;;
65552;SDS011;52465;51.560;14.368;2023-07-31T19:45:24;4.20;;;3.90;;
65552;SDS011;52465;51.560;14.368;2023-07-31T19:47:49;4.43;;;4.03;;
65552;SDS011;52465;51.560;14.368;2023-07-31T19:50:15;4.00;;;3.80;;
65552;SDS011;52465;51.560;14.368;2023-07-31T19:52:40;3.83;;;3.63;;
65552;SDS011;52465;51.560;14.368;2023-07-31T20:00:40;4.57;;;4.18;;
65552;SDS011;52465;51.560;14.368;2023-07-31T20:04:43;4.47;;;4.18;;
65552;SDS011;52465;51.560;14.368;2023-07-31T20:07:08;4.00;;;3.80;;
65552;SDS011;52465;51.560;14.368;2023-07-31T20:09:33;4.90;;;4.20;;
65552;SDS011;52465;51.560;14.368;2023-07-31T20:25:16;4.07;;;3.78;;
65552;SDS011;52465;51.560;14.368;2023-07-31T20:27:41;4.30;;;4.00;;
65552;SDS011;52465;51.560;14.368;2023-07-31T20:32:19;3.70;;;3.50;;
65552;SDS011;52465;51.560;14.368;2023-07-31T20:47:34;4.10;;;3.80;;
65552;SDS011;52465;51.560;14.368;2023-07-31T20:50:00;3.92;;;3.63;;
65552;SDS011;52465;51.560;14.368;2023-07-31T20:54:22;4.00;;;3.70;;
65552;SDS011;52465;51.560;14.368;2023-07-31T20:58:36;3.95;;;3.65;;
65552;SDS011;52465;51.560;14.368;2023-07-31T21:01:03;4.20;;;3.90;;
65552;SDS011;52465;51.560;14.368;2023-07-31T21:04:51;3.92;;;3.70;;
65552;SDS011;52465;51.560;14.368;2023-07-31T21:08:54;3.75;;;3.55;;
65552;SDS011;52465;51.560;14.368;2023-07-31T21:15:17;4.00;;;3.70;;
65552;SDS011;52465;51.560;14.368;2023-07-31T21:17:42;4.00;;;3.70;;
65552;SDS011;52465;51.560;14.368;2023-07-31T21:20:08;3.95;;;3.75;;
65552;SDS011;52465;51.560;14.368;2023-07-31T21:24:13;3.85;;;3.65;;
65552;SDS011;52465;51.560;14.368;2023-07-31T21:29:56;4.20;;;3.90;;
65552;SDS011;52465;51.560;14.368;2023-07-31T21:47:31;3.95;;;3.65;;
65552;SDS011;52465;51.560;14.368;2023-07-31T21:49:56;4.68;;;4.30;;
65552;SDS011;52465;51.560;14.368;2023-07-31T22:00:35;3.90;;;3.70;;
65552;SDS011;52465;51.560;14.368;2023-07-31T22:23:01;4.10;;;3.80;;
65552;SDS011;52465;51.560;14.368;2023-07-31T22:25:26;4.25;;;3.85;;
65552;SDS011;52465;51.560;14.368;2023-07-31T22:27:52;3.88;;;3.67;;
65552;SDS011;52465;51.560;14.368;2023-07-31T22:32:03;4.25;;;3.95;;
65552;SDS011;52465;51.560;14.368;2023-07-31T22:35:40;4.30;;;4.00;;
65552;SDS011;52465;51.560;14.368;2023-07-31T22:38:05;4.38;;;3.97;;
65552;SDS011;52465;51.560;14.368;2023-07-31T22:51:27;4.18;;;3.80;;
65552;SDS011;52465;51.560;14.368;2023-07-31T23:00:02;3.88;;;3.63;;
65552;SDS011;52465;51.560;14.368;2023-07-31T23:03:58;4.20;;;3.80;;
65552;SDS011;52465;51.560;14.368;2023-07-31T23:12:25;4.13;;;3.83;;
65552;SDS011;52465;51.560;14.368;2023-07-31T23:14:52;4.10;;;3.80;;
65552;SDS011;52465;51.560;14.368;2023-07-31T23:20:54;6.07;;;3.80;;
65552;SDS011;52465;51.560;14.368;2023-07-31T23:25:46;4.20;;;3.60;;
65552;SDS011;52465;51.560;14.368;2023-07-31T23:30:05;3.92;;;3.63;;
65552;SDS011;52465;51.560;14.368;2023-07-31T23:46:25;4.03;;;3.78;;
65552;SDS011;52465;51.560;14.368;2023-07-31T23:48:50;4.10;;;3.80;;
